sensor_id;sensor_type;location;lat;lon;timestamp;P1;durP1;ratioP1;P2;durP2;ratioP2
56746;SDS011;42623;49.978;9.966;2023-10-13T00:00:03;7.53;;;4.97;;
56746;SDS011;42623;49.978;9.966;2023-10-13T00:00:34;7.32;;;4.35;;
56746;SDS011;42623;49.978;9.966;2023-10-13T00:00:47;6.93;;;4.40;;
56746;SDS011;42623;49.978;9.966;2023-10-13T00:00:57;6.60;;;4.55;;
56746;SDS011;42623;49.978;9.966;2023-10-13T00:01:08;6.53;;;4.65;;
56746;SDS011;42623;49.978;9.966;2023-10-13T00:01:22;6.25;;;4.35;;
56746;SDS011;42623;49.978;9.966;2023-10-13T00:01:32;6.20;;;3.75;;
56746;SDS011;42623;49.978;9.966;2023-10-13T00:01:43;6.97;;;4.10;;
56746;SDS011;42623;49.978;9.966;2023-10-13T00:01:53;7.35;;;4.25;;
56746;SDS011;42623;49.978;9.966;2023-10-13T00:02:04;7.00;;;4.30;;
56746;SDS011;42623;49.978;9.966;2023-10-13T00:02:15;7.17;;;4.37;;
56746;SDS011;42623;49.978;9.966;2023-10-13T00:02:31;8.68;;;4.53;;
56746;SDS011;42623;49.978;9.966;2023-10-13T00:02:43;8.55;;;4.38;;
56746;SDS011;42623;49.978;9.966;2023-10-13T00:02:53;7.60;;;4.13;;
56746;SDS011;42623;49.978;9.966;2023-10-13T00:03:04;6.17;;;3.83;;
56746;SDS011;42623;49.978;9.966;2023-10-13T00:03:15;6.38;;;3.90;;
56746;SDS011;42623;49.978;9.966;2023-10-13T00:03:25;6.60;;;4.10;;
56746;SDS011;42623;49.978;9.966;2023-10-13T00:03:41;8.35;;;4.53;;
56746;SDS011;42623;49.978;9.966;2023-10-13T00:03:51;8.10;;;4.47;;
56746;SDS011;42623;49.978;9.966;2023-10-13T00:04:03;10.00;;;4.30;;
56746;SDS011;42623;49.978;9.966;2023-10-13T00:04:15;9.13;;;4.30;;
56746;SDS011;42623;49.978;9.966;2023-10-13T00:04:26;9.43;;;4.40;;
56746;SDS011;42623;49.978;9.966;2023-10-13T00:04:36;7.83;;;4.67;;
56746;SDS011;42623;49.978;9.966;2023-10-13T00:04:46;8.30;;;5.03;;
56746;SDS011;42623;49.978;9.966;2023-10-13T00:04:56;8.20;;;5.20;;
56746;SDS011;42623;49.978;9.966;2023-10-13T00:05:06;7.80;;;4.72;;
56746;SDS011;42623;49.978;9.966;2023-10-13T00:05:19;6.78;;;3.97;;
56746;SDS011;42623;49.978;9.966;2023-10-13T00:05:29;6.93;;;3.97;;
56746;SDS011;42623;49.978;9.966;2023-10-13T00:05:43;7.80;;;4.53;;
56746;SDS011;42623;49.978;9.966;2023-10-13T00:05:57;8.83;;;4.77;;
56746;SDS011;42623;49.978;9.966;2023-10-13T00:06:09;8.40;;;4.80;;
56746;SDS011;42623;49.978;9.966;2023-10-13T00:06:20;8.95;;;4.43;;
56746;SDS011;42623;49.978;9.966;2023-10-13T00:06:30;8.70;;;4.63;;
56746;SDS011;42623;49.978;9.966;2023-10-13T00:06:41;10.07;;;4.80;;
56746;SDS011;42623;49.978;9.966;2023-10-13T00:06:53;9.90;;;4.95;;
56746;SDS011;42623;49.978;9.966;2023-10-13T00:07:03;9.45;;;4.78;;
56746;SDS011;42623;49.978;9.966;2023-10-13T00:07:14;7.97;;;4.28;;
56746;SDS011;42623;49.978;9.966;2023-10-13T00:07:24;6.93;;;4.30;;
56746;SDS011;42623;49.978;9.966;2023-10-13T00:07:35;7.07;;;4.40;;
56746;SDS011;42623;49.978;9.966;2023-10-13T00:07:45;7.00;;;4.30;;
56746;SDS011;42623;49.978;9.966;2023-10-13T00:07:55;7.43;;;4.43;;
56746;SDS011;42623;49.978;9.966;2023-10-13T00:08:05;8.10;;;4.63;;
56746;SDS011;42623;49.978;9.966;2023-10-13T00:08:15;9.00;;;4.80;;
56746;SDS011;42623;49.978;9.966;2023-10-13T00:08:27;8.80;;;4.97;;
56746;SDS011;42623;49.978;9.966;2023-10-13T00:08:39;8.50;;;4.97;;
56746;SDS011;42623;49.978;9.966;2023-10-13T00:08:49;7.80;;;4.82;;
56746;SDS011;42623;49.978;9.966;2023-10-13T00:09:00;7.75;;;4.68;;
56746;SDS011;42623;49.978;9.966;2023-10-13T00:09:10;8.50;;;5.07;;
56746;SDS011;42623;49.978;9.966;2023-10-13T00:09:24;8.43;;;4.93;;
56746;SDS011;42623;49.978;9.966;2023-10-13T00:09:36;8.80;;;4.85;;
56746;SDS011;42623;49.978;9.966;2023-10-13T00:09:49;9.57;;;5.13;;
56746;SDS011;42623;49.978;9.966;2023-10-13T00:09:59;8.47;;;4.83;;
56746;SDS011;42623;49.978;9.966;2023-10-13T00:10:09;7.57;;;4.53;;
56746;SDS011;42623;49.978;9.966;2023-10-13T00:10:20;6.78;;;4.25;;
56746;SDS011;42623;49.978;9.966;2023-10-13T00:10:31;7.03;;;4.38;;
56746;SDS011;42623;49.978;9.966;2023-10-13T00:10:41;7.73;;;4.63;;
56746;SDS011;42623;49.978;9.966;2023-10-13T00:10:52;8.20;;;4.97;;
56746;SDS011;42623;49.978;9.966;2023-10-13T00:11:02;8.60;;;5.20;;
56746;SDS011;42623;49.978;9.966;2023-10-13T00:11:13;8.63;;;4.53;;
56746;SDS011;42623;49.978;9.966;2023-10-13T00:11:23;8.40;;;4.20;;
56746;SDS011;42623;49.978;9.966;2023-10-13T00:11:36;7.05;;;3.90;;
56746;SDS011;42623;49.978;9.966;2023-10-13T00:11:46;6.97;;;4.27;;
56746;SDS011;42623;49.978;9.966;2023-10-13T00:11:57;7.73;;;4.67;;
56746;SDS011;42623;49.978;9.966;2023-10-13T00:12:08;9.98;;;4.55;;
56746;SDS011;42623;49.978;9.966;2023-10-13T00:12:23;10.35;;;4.35;;
56746;SDS011;42623;49.978;9.966;2023-10-13T00:12:33;8.63;;;4.20;;
56746;SDS011;42623;49.978;9.966;2023-10-13T00:12:47;8.93;;;4.15;;
56746;SDS011;42623;49.978;9.966;2023-10-13T00:12:59;8.63;;;4.18;;
56746;SDS011;42623;49.978;9.966;2023-10-13T00:13:21;8.15;;;4.53;;
56746;SDS011;42623;49.978;9.966;2023-10-13T00:13:32;8.37;;;4.50;;
56746;SDS011;42623;49.978;9.966;2023-10-13T00:13:51;7.30;;;4.43;;
56746;SDS011;42623;49.978;9.966;2023-10-13T00:14:02;8.70;;;4.63;;
56746;SDS011;42623;49.978;9.966;2023-10-13T00:14:13;8.95;;;4.45;;
56746;SDS011;42623;49.978;9.966;2023-10-13T00:14:26;8.10;;;4.22;;
56746;SDS011;42623;49.978;9.966;2023-10-13T00:14:43;7.32;;;4.47;;
56746;SDS011;42623;49.978;9.966;2023-10-13T00:14:55;7.68;;;4.47;;
56746;SDS011;42623;49.978;9.966;2023-10-13T00:15:05;8.87;;;4.63;;
56746;SDS011;42623;49.978;9.966;2023-10-13T00:15:23;8.85;;;4.70;;
56746;SDS011;42623;49.978;9.966;2023-10-13T00:15:44;7.95;;;4.43;;
56746;SDS011;42623;49.978;9.966;2023-10-13T00:16:15;12.15;;;5.32;;
56746;SDS011;42623;49.978;9.966;2023-10-13T00:16:31;9.02;;;4.85;;
56746;SDS011;42623;49.978;9.966;2023-10-13T00:16:44;7.13;;;4.03;;
56746;SDS011;42623;49.978;9.966;2023-10-13T00:17:10;7.28;;;4.55;;
56746;SDS011;42623;49.978;9.966;2023-10-13T00:17:29;6.93;;;4.28;;
56746;SDS011;42623;49.978;9.966;2023-10-13T00:17:42;6.40;;;3.85;;
56746;SDS011;42623;49.978;9.966;2023-10-13T00:17:52;7.40;;;3.87;;
56746;SDS011;42623;49.978;9.966;2023-10-13T00:18:02;8.57;;;4.17;;
56746;SDS011;42623;49.978;9.966;2023-10-13T00:18:14;9.82;;;4.60;;
56746;SDS011;42623;49.978;9.966;2023-10-13T00:18:24;9.17;;;4.60;;
56746;SDS011;42623;49.978;9.966;2023-10-13T00:18:37;8.90;;;4.82;;
56746;SDS011;42623;49.978;9.966;2023-10-13T00:18:51;8.73;;;4.75;;
56746;SDS011;42623;49.978;9.966;2023-10-13T00:19:07;7.03;;;4.05;;
56746;SDS011;42623;49.978;9.966;2023-10-13T00:19:20;6.32;;;3.80;;
56746;SDS011;42623;49.978;9.966;2023-10-13T00:19:34;6.25;;;3.83;;
56746;SDS011;42623;49.978;9.966;2023-10-13T00:19:48;6.20;;;3.75;;
56746;SDS011;42623;49.978;9.966;2023-10-13T00:20:02;6.80;;;4.25;;
56746;SDS011;42623;49.978;9.966;2023-10-13T00:20:21;7.75;;;4.65;;
56746;SDS011;42623;49.978;9.966;2023-10-13T00:20:45;9.27;;;4.93;;
56746;SDS011;42623;49.978;9.966;2023-10-13T00:21:02;7.97;;;4.68;;
56746;SDS011;42623;49.978;9.966;2023-10-13T00:21:22;6.90;;;4.18;;
56746;SDS011;42623;49.978;9.966;2023-10-13T00:21:42;7.25;;;3.78;;
56746;SDS011;42623;49.978;9.966;2023-10-13T00:21:52;8.00;;;4.03;;
56746;SDS011;42623;49.978;9.966;2023-10-13T00:22:06;7.68;;;4.35;;
56746;SDS011;42623;49.978;9.966;2023-10-13T00:22:19;7.80;;;4.60;;
56746;SDS011;42623;49.978;9.966;2023-10-13T00:22:29;7.97;;;4.88;;
56746;SDS011;42623;49.978;9.966;2023-10-13T00:22:41;7.68;;;4.97;;
56746;SDS011;42623;49.978;9.966;2023-10-13T00:22:51;7.73;;;4.67;;
56746;SDS011;42623;49.978;9.966;2023-10-13T00:23:01;7.68;;;4.57;;
56746;SDS011;42623;49.978;9.966;2023-10-13T00:23:12;7.90;;;4.30;;
56746;SDS011;42623;49.978;9.966;2023-10-13T00:23:22;8.60;;;4.47;;
56746;SDS011;42623;49.978;9.966;2023-10-13T00:23:33;7.65;;;3.92;;
56746;SDS011;42623;49.978;9.966;2023-10-13T00:23:44;7.53;;;4.03;;
56746;SDS011;42623;49.978;9.966;2023-10-13T00:24:03;6.88;;;4.20;;
56746;SDS011;42623;49.978;9.966;2023-10-13T00:24:16;7.05;;;4.50;;
56746;SDS011;42623;49.978;9.966;2023-10-13T00:24:33;6.63;;;4.47;;
56746;SDS011;42623;49.978;9.966;2023-10-13T00:24:51;6.55;;;4.38;;
56746;SDS011;42623;49.978;9.966;2023-10-13T00:25:05;6.85;;;4.57;;
56746;SDS011;42623;49.978;9.966;2023-10-13T00:25:16;6.53;;;4.35;;
56746;SDS011;42623;49.978;9.966;2023-10-13T00:25:36;6.75;;;4.18;;
56746;SDS011;42623;49.978;9.966;2023-10-13T00:26:00;6.97;;;4.40;;
56746;SDS011;42623;49.978;9.966;2023-10-13T00:26:12;7.45;;;4.60;;
56746;SDS011;42623;49.978;9.966;2023-10-13T00:26:24;8.10;;;4.57;;
56746;SDS011;42623;49.978;9.966;2023-10-13T00:26:37;7.40;;;4.07;;
56746;SDS011;42623;49.978;9.966;2023-10-13T00:26:47;7.23;;;3.87;;
56746;SDS011;42623;49.978;9.966;2023-10-13T00:26:59;7.55;;;3.97;;
56746;SDS011;42623;49.978;9.966;2023-10-13T00:27:40;7.90;;;5.07;;
56746;SDS011;42623;49.978;9.966;2023-10-13T00:27:51;7.95;;;4.90;;
56746;SDS011;42623;49.978;9.966;2023-10-13T00:28:02;8.00;;;4.85;;
56746;SDS011;42623;49.978;9.966;2023-10-13T00:28:13;7.95;;;4.55;;
56746;SDS011;42623;49.978;9.966;2023-10-13T00:28:32;7.78;;;4.07;;
56746;SDS011;42623;49.978;9.966;2023-10-13T00:28:45;8.27;;;4.30;;
56746;SDS011;42623;49.978;9.966;2023-10-13T00:29:00;7.57;;;4.28;;
56746;SDS011;42623;49.978;9.966;2023-10-13T00:29:26;7.75;;;4.82;;
56746;SDS011;42623;49.978;9.966;2023-10-13T00:29:47;6.45;;;4.50;;
56746;SDS011;42623;49.978;9.966;2023-10-13T00:30:03;6.78;;;4.55;;
56746;SDS011;42623;49.978;9.966;2023-10-13T00:30:32;8.85;;;4.70;;
56746;SDS011;42623;49.978;9.966;2023-10-13T00:30:46;8.65;;;4.45;;
56746;SDS011;42623;49.978;9.966;2023-10-13T00:31:00;7.03;;;4.38;;
56746;SDS011;42623;49.978;9.966;2023-10-13T00:31:13;6.82;;;4.38;;
56746;SDS011;42623;49.978;9.966;2023-10-13T00:31:27;6.53;;;4.30;;
56746;SDS011;42623;49.978;9.966;2023-10-13T00:31:46;12.07;;;4.35;;
56746;SDS011;42623;49.978;9.966;2023-10-13T00:31:58;13.20;;;4.57;;
56746;SDS011;42623;49.978;9.966;2023-10-13T00:32:08;11.70;;;4.70;;
56746;SDS011;42623;49.978;9.966;2023-10-13T00:32:22;7.38;;;4.25;;
56746;SDS011;42623;49.978;9.966;2023-10-13T00:32:37;7.13;;;4.32;;
56746;SDS011;42623;49.978;9.966;2023-10-13T00:32:50;8.05;;;4.45;;
56746;SDS011;42623;49.978;9.966;2023-10-13T00:33:05;8.35;;;4.60;;
56746;SDS011;42623;49.978;9.966;2023-10-13T00:33:15;7.53;;;4.63;;
56746;SDS011;42623;49.978;9.966;2023-10-13T00:33:29;7.07;;;4.63;;
56746;SDS011;42623;49.978;9.966;2023-10-13T00:33:42;6.55;;;4.20;;
56746;SDS011;42623;49.978;9.966;2023-10-13T00:33:52;6.53;;;4.23;;
56746;SDS011;42623;49.978;9.966;2023-10-13T00:34:05;7.88;;;5.05;;
56746;SDS011;42623;49.978;9.966;2023-10-13T00:34:22;7.95;;;4.95;;
56746;SDS011;42623;49.978;9.966;2023-10-13T00:34:38;7.70;;;4.78;;
56746;SDS011;42623;49.978;9.966;2023-10-13T00:34:49;8.00;;;5.00;;
56746;SDS011;42623;49.978;9.966;2023-10-13T00:35:05;7.70;;;4.72;;
56746;SDS011;42623;49.978;9.966;2023-10-13T00:35:15;7.45;;;4.60;;
56746;SDS011;42623;49.978;9.966;2023-10-13T00:35:34;7.75;;;5.03;;
56746;SDS011;42623;49.978;9.966;2023-10-13T00:35:52;9.30;;;5.28;;
56746;SDS011;42623;49.978;9.966;2023-10-13T00:36:08;8.77;;;5.30;;
56746;SDS011;42623;49.978;9.966;2023-10-13T00:36:18;9.18;;;5.32;;
56746;SDS011;42623;49.978;9.966;2023-10-13T00:36:29;7.82;;;4.85;;
56746;SDS011;42623;49.978;9.966;2023-10-13T00:36:41;9.30;;;4.80;;
56746;SDS011;42623;49.978;9.966;2023-10-13T00:37:10;6.80;;;4.50;;
56746;SDS011;42623;49.978;9.966;2023-10-13T00:37:37;9.85;;;4.75;;
56746;SDS011;42623;49.978;9.966;2023-10-13T00:37:57;7.80;;;4.38;;
56746;SDS011;42623;49.978;9.966;2023-10-13T00:38:13;7.10;;;4.13;;
56746;SDS011;42623;49.978;9.966;2023-10-13T00:38:24;7.87;;;4.30;;
56746;SDS011;42623;49.978;9.966;2023-10-13T00:38:34;7.60;;;4.20;;
56746;SDS011;42623;49.978;9.966;2023-10-13T00:38:48;7.90;;;4.20;;
56746;SDS011;42623;49.978;9.966;2023-10-13T00:38:58;7.85;;;4.10;;
56746;SDS011;42623;49.978;9.966;2023-10-13T00:39:09;8.65;;;4.68;;
56746;SDS011;42623;49.978;9.966;2023-10-13T00:39:25;7.95;;;4.80;;
56746;SDS011;42623;49.978;9.966;2023-10-13T00:39:38;6.43;;;4.40;;
56746;SDS011;42623;49.978;9.966;2023-10-13T00:39:54;7.32;;;4.55;;
56746;SDS011;42623;49.978;9.966;2023-10-13T00:40:08;8.07;;;4.68;;
56746;SDS011;42623;49.978;9.966;2023-10-13T00:40:37;7.18;;;4.25;;
56746;SDS011;42623;49.978;9.966;2023-10-13T00:40:47;7.17;;;4.17;;
56746;SDS011;42623;49.978;9.966;2023-10-13T00:41:04;10.45;;;4.38;;
56746;SDS011;42623;49.978;9.966;2023-10-13T00:41:26;10.90;;;4.25;;
56746;SDS011;42623;49.978;9.966;2023-10-13T00:41:57;6.97;;;4.30;;
56746;SDS011;42623;49.978;9.966;2023-10-13T00:42:08;6.82;;;4.55;;
56746;SDS011;42623;49.978;9.966;2023-10-13T00:42:27;6.82;;;4.55;;
56746;SDS011;42623;49.978;9.966;2023-10-13T00:42:58;7.60;;;4.53;;
56746;SDS011;42623;49.978;9.966;2023-10-13T00:43:28;12.20;;;4.55;;
56746;SDS011;42623;49.978;9.966;2023-10-13T00:43:43;7.97;;;4.37;;
56746;SDS011;42623;49.978;9.966;2023-10-13T00:43:54;7.88;;;4.90;;
56746;SDS011;42623;49.978;9.966;2023-10-13T00:44:19;8.88;;;4.80;;
56746;SDS011;42623;49.978;9.966;2023-10-13T00:44:38;8.13;;;4.55;;
56746;SDS011;42623;49.978;9.966;2023-10-13T00:44:52;7.60;;;4.50;;
56746;SDS011;42623;49.978;9.966;2023-10-13T00:45:04;8.18;;;4.70;;
56746;SDS011;42623;49.978;9.966;2023-10-13T00:45:14;9.90;;;5.10;;
56746;SDS011;42623;49.978;9.966;2023-10-13T00:45:27;9.55;;;5.00;;
56746;SDS011;42623;49.978;9.966;2023-10-13T00:45:38;8.20;;;4.78;;
56746;SDS011;42623;49.978;9.966;2023-10-13T00:45:51;8.20;;;4.75;;
56746;SDS011;42623;49.978;9.966;2023-10-13T00:46:05;7.78;;;4.72;;
56746;SDS011;42623;49.978;9.966;2023-10-13T00:46:17;6.75;;;4.47;;
56746;SDS011;42623;49.978;9.966;2023-10-13T00:46:30;7.18;;;4.72;;
56746;SDS011;42623;49.978;9.966;2023-10-13T00:46:43;7.65;;;4.95;;
56746;SDS011;42623;49.978;9.966;2023-10-13T00:46:54;7.38;;;4.70;;
56746;SDS011;42623;49.978;9.966;2023-10-13T00:47:07;8.30;;;4.75;;
56746;SDS011;42623;49.978;9.966;2023-10-13T00:47:26;9.65;;;5.10;;
56746;SDS011;42623;49.978;9.966;2023-10-13T00:47:45;8.43;;;5.10;;
56746;SDS011;42623;49.978;9.966;2023-10-13T00:47:59;8.15;;;4.95;;
56746;SDS011;42623;49.978;9.966;2023-10-13T00:48:11;7.60;;;5.28;;
56746;SDS011;42623;49.978;9.966;2023-10-13T00:48:27;7.85;;;5.45;;
56746;SDS011;42623;49.978;9.966;2023-10-13T00:48:43;8.10;;;4.95;;
56746;SDS011;42623;49.978;9.966;2023-10-13T00:49:04;10.02;;;4.78;;
56746;SDS011;42623;49.978;9.966;2023-10-13T00:49:15;9.58;;;4.98;;
56746;SDS011;42623;49.978;9.966;2023-10-13T00:49:25;7.10;;;5.10;;
56746;SDS011;42623;49.978;9.966;2023-10-13T00:49:36;7.17;;;5.13;;
56746;SDS011;42623;49.978;9.966;2023-10-13T00:49:49;8.07;;;5.53;;
56746;SDS011;42623;49.978;9.966;2023-10-13T00:49:59;9.00;;;5.83;;
56746;SDS011;42623;49.978;9.966;2023-10-13T00:50:10;8.27;;;5.70;;
56746;SDS011;42623;49.978;9.966;2023-10-13T00:50:25;8.70;;;5.30;;
56746;SDS011;42623;49.978;9.966;2023-10-13T00:50:36;9.70;;;5.40;;
56746;SDS011;42623;49.978;9.966;2023-10-13T00:50:46;8.93;;;5.37;;
56746;SDS011;42623;49.978;9.966;2023-10-13T00:50:58;9.35;;;5.45;;
56746;SDS011;42623;49.978;9.966;2023-10-13T00:51:12;9.68;;;6.30;;
56746;SDS011;42623;49.978;9.966;2023-10-13T00:51:42;8.65;;;5.53;;
56746;SDS011;42623;49.978;9.966;2023-10-13T00:51:57;9.13;;;5.80;;
56746;SDS011;42623;49.978;9.966;2023-10-13T00:52:08;9.70;;;5.65;;
56746;SDS011;42623;49.978;9.966;2023-10-13T00:52:20;8.73;;;5.22;;
56746;SDS011;42623;49.978;9.966;2023-10-13T00:52:32;8.63;;;5.07;;
56746;SDS011;42623;49.978;9.966;2023-10-13T00:52:45;8.57;;;5.70;;
56746;SDS011;42623;49.978;9.966;2023-10-13T00:53:01;8.48;;;6.13;;
56746;SDS011;42623;49.978;9.966;2023-10-13T00:53:11;8.07;;;5.60;;
56746;SDS011;42623;49.978;9.966;2023-10-13T00:53:22;8.40;;;5.43;;
56746;SDS011;42623;49.978;9.966;2023-10-13T00:53:34;7.80;;;5.20;;
56746;SDS011;42623;49.978;9.966;2023-10-13T00:53:47;8.18;;;5.28;;
56746;SDS011;42623;49.978;9.966;2023-10-13T00:53:58;7.78;;;5.15;;
56746;SDS011;42623;49.978;9.966;2023-10-13T00:54:09;7.88;;;4.97;;
56746;SDS011;42623;49.978;9.966;2023-10-13T00:54:22;7.93;;;5.22;;
56746;SDS011;42623;49.978;9.966;2023-10-13T00:54:37;8.13;;;5.22;;
56746;SDS011;42623;49.978;9.966;2023-10-13T00:54:47;9.32;;;5.20;;
56746;SDS011;42623;49.978;9.966;2023-10-13T00:54:59;8.93;;;5.18;;
56746;SDS011;42623;49.978;9.966;2023-10-13T00:55:10;8.52;;;5.28;;
56746;SDS011;42623;49.978;9.966;2023-10-13T00:55:22;8.50;;;5.40;;
56746;SDS011;42623;49.978;9.966;2023-10-13T00:55:32;8.10;;;5.40;;
56746;SDS011;42623;49.978;9.966;2023-10-13T00:55:43;7.40;;;4.95;;
56746;SDS011;42623;49.978;9.966;2023-10-13T00:55:54;6.95;;;4.15;;
56746;SDS011;42623;49.978;9.966;2023-10-13T00:56:06;7.00;;;4.07;;
56746;SDS011;42623;49.978;9.966;2023-10-13T00:56:28;7.47;;;4.72;;
56746;SDS011;42623;49.978;9.966;2023-10-13T00:56:41;7.57;;;4.78;;
56746;SDS011;42623;49.978;9.966;2023-10-13T00:57:03;9.90;;;5.22;;
56746;SDS011;42623;49.978;9.966;2023-10-13T00:57:36;10.65;;;5.00;;
56746;SDS011;42623;49.978;9.966;2023-10-13T00:57:47;9.40;;;5.30;;
56746;SDS011;42623;49.978;9.966;2023-10-13T00:58:02;8.82;;;4.90;;
56746;SDS011;42623;49.978;9.966;2023-10-13T00:58:13;6.75;;;4.50;;
56746;SDS011;42623;49.978;9.966;2023-10-13T00:58:25;6.78;;;4.60;;
56746;SDS011;42623;49.978;9.966;2023-10-13T00:58:37;7.03;;;4.38;;
56746;SDS011;42623;49.978;9.966;2023-10-13T00:58:49;7.75;;;4.43;;
56746;SDS011;42623;49.978;9.966;2023-10-13T00:59:02;8.57;;;4.72;;
56746;SDS011;42623;49.978;9.966;2023-10-13T00:59:14;9.88;;;5.10;;
56746;SDS011;42623;49.978;9.966;2023-10-13T00:59:24;9.68;;;4.97;;
56746;SDS011;42623;49.978;9.966;2023-10-13T00:59:35;9.88;;;5.18;;
56746;SDS011;42623;49.978;9.966;2023-10-13T00:59:46;8.37;;;4.97;;
56746;SDS011;42623;49.978;9.966;2023-10-13T00:59:57;7.68;;;4.82;;
56746;SDS011;42623;49.978;9.966;2023-10-13T01:00:07;7.30;;;4.73;;
56746;SDS011;42623;49.978;9.966;2023-10-13T01:00:34;7.65;;;4.43;;
56746;SDS011;42623;49.978;9.966;2023-10-13T01:00:56;6.95;;;4.32;;
56746;SDS011;42623;49.978;9.966;2023-10-13T01:01:06;7.40;;;4.07;;
56746;SDS011;42623;49.978;9.966;2023-10-13T01:01:31;8.30;;;4.28;;
56746;SDS011;42623;49.978;9.966;2023-10-13T01:01:45;7.97;;;4.80;;
56746;SDS011;42623;49.978;9.966;2023-10-13T01:01:59;8.13;;;4.70;;
56746;SDS011;42623;49.978;9.966;2023-10-13T01:02:30;6.64;;;4.46;;
56746;SDS011;42623;49.978;9.966;2023-10-13T01:02:45;8.13;;;5.07;;
56746;SDS011;42623;49.978;9.966;2023-10-13T01:03:04;7.50;;;4.25;;
56746;SDS011;42623;49.978;9.966;2023-10-13T01:03:17;6.53;;;4.05;;
56746;SDS011;42623;49.978;9.966;2023-10-13T01:03:35;7.35;;;4.50;;
56746;SDS011;42623;49.978;9.966;2023-10-13T01:03:47;7.00;;;4.30;;
56746;SDS011;42623;49.978;9.966;2023-10-13T01:04:00;7.28;;;4.45;;
56746;SDS011;42623;49.978;9.966;2023-10-13T01:04:12;8.40;;;4.60;;
56746;SDS011;42623;49.978;9.966;2023-10-13T01:04:23;9.00;;;4.63;;
56746;SDS011;42623;49.978;9.966;2023-10-13T01:04:37;8.65;;;4.90;;
56746;SDS011;42623;49.978;9.966;2023-10-13T01:04:47;7.93;;;4.83;;
56746;SDS011;42623;49.978;9.966;2023-10-13T01:04:58;7.22;;;4.45;;
56746;SDS011;42623;49.978;9.966;2023-10-13T01:05:08;7.00;;;4.10;;
56746;SDS011;42623;49.978;9.966;2023-10-13T01:05:19;6.97;;;4.03;;
56746;SDS011;42623;49.978;9.966;2023-10-13T01:05:30;7.43;;;4.38;;
56746;SDS011;42623;49.978;9.966;2023-10-13T01:05:41;7.13;;;4.57;;
56746;SDS011;42623;49.978;9.966;2023-10-13T01:05:55;8.43;;;4.83;;
56746;SDS011;42623;49.978;9.966;2023-10-13T01:06:05;8.43;;;4.85;;
56746;SDS011;42623;49.978;9.966;2023-10-13T01:06:17;7.88;;;4.28;;
56746;SDS011;42623;49.978;9.966;2023-10-13T01:06:27;7.22;;;3.85;;
56746;SDS011;42623;49.978;9.966;2023-10-13T01:06:38;8.33;;;4.37;;
56746;SDS011;42623;49.978;9.966;2023-10-13T01:06:48;8.30;;;4.43;;
56746;SDS011;42623;49.978;9.966;2023-10-13T01:06:58;9.50;;;4.73;;
56746;SDS011;42623;49.978;9.966;2023-10-13T01:07:09;9.52;;;4.65;;
56746;SDS011;42623;49.978;9.966;2023-10-13T01:07:22;12.35;;;4.82;;
56746;SDS011;42623;49.978;9.966;2023-10-13T01:07:32;10.70;;;4.83;;
56746;SDS011;42623;49.978;9.966;2023-10-13T01:07:47;7.10;;;4.03;;
56746;SDS011;42623;49.978;9.966;2023-10-13T01:08:04;8.05;;;3.92;;
56746;SDS011;42623;49.978;9.966;2023-10-13T01:08:14;8.33;;;4.20;;
56746;SDS011;42623;49.978;9.966;2023-10-13T01:08:34;7.97;;;4.13;;
56746;SDS011;42623;49.978;9.966;2023-10-13T01:08:47;7.07;;;4.38;;
56746;SDS011;42623;49.978;9.966;2023-10-13T01:09:04;7.40;;;4.70;;
56746;SDS011;42623;49.978;9.966;2023-10-13T01:09:21;7.15;;;4.20;;
56746;SDS011;42623;49.978;9.966;2023-10-13T01:09:40;8.52;;;4.70;;
56746;SDS011;42623;49.978;9.966;2023-10-13T01:09:50;10.63;;;4.55;;
56746;SDS011;42623;49.978;9.966;2023-10-13T01:10:00;10.60;;;4.63;;
56746;SDS011;42623;49.978;9.966;2023-10-13T01:10:14;8.20;;;5.00;;
56746;SDS011;42623;49.978;9.966;2023-10-13T01:10:25;7.75;;;4.95;;
56746;SDS011;42623;49.978;9.966;2023-10-13T01:10:42;7.70;;;4.60;;
56746;SDS011;42623;49.978;9.966;2023-10-13T01:10:52;7.45;;;4.28;;
56746;SDS011;42623;49.978;9.966;2023-10-13T01:11:04;7.00;;;4.45;;
56746;SDS011;42623;49.978;9.966;2023-10-13T01:11:18;8.70;;;4.90;;
56746;SDS011;42623;49.978;9.966;2023-10-13T01:11:28;9.07;;;4.93;;
56746;SDS011;42623;49.978;9.966;2023-10-13T01:11:40;9.02;;;4.97;;
56746;SDS011;42623;49.978;9.966;2023-10-13T01:11:52;7.60;;;4.50;;
56746;SDS011;42623;49.978;9.966;2023-10-13T01:12:03;7.47;;;4.47;;
56746;SDS011;42623;49.978;9.966;2023-10-13T01:12:13;7.10;;;4.53;;
56746;SDS011;42623;49.978;9.966;2023-10-13T01:12:24;7.95;;;5.07;;
56746;SDS011;42623;49.978;9.966;2023-10-13T01:12:34;7.70;;;5.00;;
56746;SDS011;42623;49.978;9.966;2023-10-13T01:12:45;7.57;;;5.00;;
56746;SDS011;42623;49.978;9.966;2023-10-13T01:12:56;7.68;;;5.03;;
56746;SDS011;42623;49.978;9.966;2023-10-13T01:13:06;8.38;;;4.90;;
56746;SDS011;42623;49.978;9.966;2023-10-13T01:13:17;8.13;;;4.63;;
56746;SDS011;42623;49.978;9.966;2023-10-13T01:13:27;7.90;;;4.40;;
56746;SDS011;42623;49.978;9.966;2023-10-13T01:13:40;7.32;;;4.38;;
56746;SDS011;42623;49.978;9.966;2023-10-13T01:13:51;7.47;;;4.55;;
56746;SDS011;42623;49.978;9.966;2023-10-13T01:14:03;8.00;;;5.13;;
56746;SDS011;42623;49.978;9.966;2023-10-13T01:14:14;7.68;;;4.95;;
56746;SDS011;42623;49.978;9.966;2023-10-13T01:14:28;6.82;;;4.35;;
56746;SDS011;42623;49.978;9.966;2023-10-13T01:14:39;7.13;;;4.63;;
56746;SDS011;42623;49.978;9.966;2023-10-13T01:14:49;7.73;;;5.10;;
56746;SDS011;42623;49.978;9.966;2023-10-13T01:14:59;8.33;;;5.50;;
56746;SDS011;42623;49.978;9.966;2023-10-13T01:15:09;8.30;;;5.23;;
56746;SDS011;42623;49.978;9.966;2023-10-13T01:15:21;7.60;;;4.80;;
56746;SDS011;42623;49.978;9.966;2023-10-13T01:15:31;7.30;;;4.70;;
56746;SDS011;42623;49.978;9.966;2023-10-13T01:15:43;6.60;;;4.22;;
56746;SDS011;42623;49.978;9.966;2023-10-13T01:15:56;7.57;;;4.65;;
56746;SDS011;42623;49.978;9.966;2023-10-13T01:16:07;8.90;;;4.70;;
56746;SDS011;42623;49.978;9.966;2023-10-13T01:16:17;8.67;;;4.77;;
56746;SDS011;42623;49.978;9.966;2023-10-13T01:16:27;8.00;;;4.38;;
56746;SDS011;42623;49.978;9.966;2023-10-13T01:16:40;7.68;;;4.63;;
56746;SDS011;42623;49.978;9.966;2023-10-13T01:16:53;7.85;;;4.93;;
56746;SDS011;42623;49.978;9.966;2023-10-13T01:17:05;7.45;;;4.75;;
56746;SDS011;42623;49.978;9.966;2023-10-13T01:17:15;7.10;;;4.80;;
56746;SDS011;42623;49.978;9.966;2023-10-13T01:17:25;7.73;;;4.70;;
56746;SDS011;42623;49.978;9.966;2023-10-13T01:17:41;7.30;;;4.50;;
56746;SDS011;42623;49.978;9.966;2023-10-13T01:18:09;7.50;;;4.68;;
56746;SDS011;42623;49.978;9.966;2023-10-13T01:18:22;7.22;;;5.05;;
56746;SDS011;42623;49.978;9.966;2023-10-13T01:18:33;7.30;;;4.97;;
56746;SDS011;42623;49.978;9.966;2023-10-13T01:18:57;9.00;;;5.13;;
56746;SDS011;42623;49.978;9.966;2023-10-13T01:19:10;8.10;;;4.63;;
56746;SDS011;42623;49.978;9.966;2023-10-13T01:19:22;7.07;;;4.47;;
56746;SDS011;42623;49.978;9.966;2023-10-13T01:19:37;7.22;;;4.40;;
56746;SDS011;42623;49.978;9.966;2023-10-13T01:19:55;6.95;;;4.45;;
56746;SDS011;42623;49.978;9.966;2023-10-13T01:20:08;6.50;;;4.32;;
56746;SDS011;42623;49.978;9.966;2023-10-13T01:20:21;6.20;;;4.20;;
56746;SDS011;42623;49.978;9.966;2023-10-13T01:20:34;6.85;;;4.45;;
56746;SDS011;42623;49.978;9.966;2023-10-13T01:20:52;7.22;;;4.32;;
56746;SDS011;42623;49.978;9.966;2023-10-13T01:21:04;6.97;;;4.10;;
56746;SDS011;42623;49.978;9.966;2023-10-13T01:21:15;6.95;;;3.90;;
56746;SDS011;42623;49.978;9.966;2023-10-13T01:21:26;6.88;;;4.18;;
56746;SDS011;42623;49.978;9.966;2023-10-13T01:21:40;7.88;;;4.43;;
56746;SDS011;42623;49.978;9.966;2023-10-13T01:21:57;8.07;;;4.47;;
56746;SDS011;42623;49.978;9.966;2023-10-13T01:22:12;7.63;;;4.32;;
56746;SDS011;42623;49.978;9.966;2023-10-13T01:22:22;7.53;;;4.07;;
56746;SDS011;42623;49.978;9.966;2023-10-13T01:22:33;7.18;;;4.18;;
56746;SDS011;42623;49.978;9.966;2023-10-13T01:22:43;7.33;;;4.37;;